createdAt,value
2018-09-03T00:00:04.000Z,100758
2018-09-03T00:02:04.000Z,100752
2018-09-03T00:04:04.000Z,100747
2018-09-03T00:06:04.000Z,100743
2018-09-03T00:08:04.000Z,100742
2018-09-03T00:09:49.000Z,100746
2018-09-03T00:10:49.000Z,100738
2018-09-03T00:12:04.000Z,100729
2018-09-03T00:13:50.000Z,100731
2018-09-03T00:15:04.000Z,100730
2018-09-03T00:16:05.000Z,100728
2018-09-03T00:17:49.000Z,100726
2018-09-03T00:19:04.000Z,100723
2018-09-03T00:20:04.000Z,100725
2018-09-03T00:22:04.000Z,100723
2018-09-03T00:23:05.000Z,100722
2018-09-03T00:25:04.000Z,100714
2018-09-03T00:27:04.000Z,100706
2018-09-03T00:29:04.000Z,100709
2018-09-03T00:31:04.000Z,100704
2018-09-03T00:32:04.000Z,100704
2018-09-03T00:33:49.000Z,100699
2018-09-03T00:35:04.000Z,100700
2018-09-03T00:36:04.000Z,100699
2018-09-03T00:38:04.000Z,100699
2018-09-03T00:39:05.000Z,100696
2018-09-03T00:41:05.000Z,100696
2018-09-03T00:43:04.000Z,100696
2018-09-03T00:45:04.000Z,100700
2018-09-03T00:46:05.000Z,100700
2018-09-03T00:48:04.000Z,100697
2018-09-03T00:50:04.000Z,100694
2018-09-03T00:51:04.000Z,100693
2018-09-03T00:52:04.000Z,100689
2018-09-03T00:54:04.000Z,100687
2018-09-03T00:56:04.000Z,100688
2018-09-03T00:58:04.000Z,100681
2018-09-03T01:00:04.000Z,100683
2018-09-03T01:02:04.000Z,100689
2018-09-03T01:04:04.000Z,100684
2018-09-03T01:05:04.000Z,100686
2018-09-03T01:06:04.000Z,100683
2018-09-03T01:07:04.000Z,100674
2018-09-03T01:09:04.000Z,100680
2018-09-03T01:10:04.000Z,100676
2018-09-03T01:12:04.000Z,100678
2018-09-03T01:13:04.000Z,100676
2018-09-03T01:14:50.000Z,100682
2018-09-03T01:16:05.000Z,100678
2018-09-03T01:18:05.000Z,100679
2018-09-03T01:20:05.000Z,100680
2018-09-03T01:21:05.000Z,100683
2018-09-03T01:23:05.000Z,100686
2018-09-03T01:25:05.000Z,100688
2018-09-03T01:27:05.000Z,100690
2018-09-03T01:28:05.000Z,100691
2018-09-03T01:29:05.000Z,100691
2018-09-03T01:30:50.000Z,100695
2018-09-03T01:32:05.000Z,100698
2018-09-03T01:34:05.000Z,100698
2018-09-03T01:36:05.000Z,100699
2018-09-03T01:37:05.000Z,100702
2018-09-03T01:39:05.000Z,100696
2018-09-03T01:40:05.000Z,100693
2018-09-03T01:42:05.000Z,100686
2018-09-03T01:44:05.000Z,100682
2018-09-03T01:46:05.000Z,100682
2018-09-03T01:48:05.000Z,100677
2018-09-03T01:50:05.000Z,100680
2018-09-03T01:51:05.000Z,100678
2018-09-03T01:52:05.000Z,100668
2018-09-03T01:54:05.000Z,100654
2018-09-03T01:56:05.000Z,100660
2018-09-03T01:57:05.000Z,100662
2018-09-03T01:59:05.000Z,100666
2018-09-03T02:01:05.000Z,100674
2018-09-03T02:03:05.000Z,100674
2018-09-03T02:05:05.000Z,100680
2018-09-03T02:06:05.000Z,100679
2018-09-03T02:08:05.000Z,100688
2018-09-03T02:10:05.000Z,100689
2018-09-03T02:12:05.000Z,100691
2018-09-03T02:14:05.000Z,100691
2018-09-03T02:15:05.000Z,100693
2018-09-03T02:17:05.000Z,100692
2018-09-03T02:19:05.000Z,100695
2018-09-03T02:21:05.000Z,100701
2018-09-03T02:22:50.000Z,100705
2018-09-03T02:24:05.000Z,100708
2018-09-03T02:25:05.000Z,100715
2018-09-03T02:27:05.000Z,100721
2018-09-03T02:29:05.000Z,100722
2018-09-03T02:31:05.000Z,100717
2018-09-03T02:32:05.000Z,100717
2018-09-03T02:34:05.000Z,100710
2018-09-03T02:36:05.000Z,100699
2018-09-03T02:38:05.000Z,100694
2018-09-03T02:39:05.000Z,100694
2018-09-03T02:40:50.000Z,100692
2018-09-03T02:42:05.000Z,100693
2018-09-03T02:44:05.000Z,100678
2018-09-03T02:45:05.000Z,100663
2018-09-03T02:47:05.000Z,100654
2018-09-03T02:49:05.000Z,100650
2018-09-03T02:50:05.000Z,100657
2018-09-03T02:51:50.000Z,100664
2018-09-03T02:53:05.000Z,100668
2018-09-03T02:54:50.000Z,100673
2018-09-03T02:56:05.000Z,100669
2018-09-03T02:58:05.000Z,100667
2018-09-03T02:59:05.000Z,100666
2018-09-03T03:00:34.000Z,100666
2018-09-03T03:02:05.000Z,100662
2018-09-03T03:03:05.000Z,100668
2018-09-03T03:04:50.000Z,100663
2018-09-03T03:06:05.000Z,100659
2018-09-03T03:08:05.000Z,100663
2018-09-03T03:10:05.000Z,100666
2018-09-03T03:12:05.000Z,100662
2018-09-03T03:14:05.000Z,100659
2018-09-03T03:16:05.000Z,100655
2018-09-03T03:18:05.000Z,100649
2018-09-03T03:20:05.000Z,100651
2018-09-03T03:22:05.000Z,100647
2018-09-03T03:24:05.000Z,100639
2018-09-03T03:26:05.000Z,100649
2018-09-03T03:27:50.000Z,100647
2018-09-03T03:29:05.000Z,100644
2018-09-03T03:31:05.000Z,100642
2018-09-03T03:33:05.000Z,100636
2018-09-03T03:35:05.000Z,100633
2018-09-03T03:37:05.000Z,100635
2018-09-03T03:38:05.000Z,100632
2018-09-03T03:39:05.000Z,100628
2018-09-03T03:41:05.000Z,100628
2018-09-03T03:42:05.000Z,100631
2018-09-03T03:44:05.000Z,100636
2018-09-03T03:45:05.000Z,100628
2018-09-03T03:47:05.000Z,100627
2018-09-03T03:48:05.000Z,100626
2018-09-03T03:50:05.000Z,100620
2018-09-03T03:52:05.000Z,100617
2018-09-03T03:54:05.000Z,100618
2018-09-03T03:56:05.000Z,100621
2018-09-03T03:57:05.000Z,100621
2018-09-03T03:59:05.000Z,100613
2018-09-03T04:00:05.000Z,100617
2018-09-03T04:02:05.000Z,100622
2018-09-03T04:04:05.000Z,100613
2018-09-03T04:06:05.000Z,100619
2018-09-03T04:07:05.000Z,100618
2018-09-03T04:09:05.000Z,100612
2018-09-03T04:10:50.000Z,100552
2018-09-03T04:12:05.000Z,100609
2018-09-03T04:14:05.000Z,100607
2018-09-03T04:15:05.000Z,100604
2018-09-03T04:16:50.000Z,100600
2018-09-03T04:18:05.000Z,100601
2018-09-03T04:19:05.000Z,100605
2018-09-03T04:21:05.000Z,100595
2018-09-03T04:23:05.000Z,100587
2018-09-03T04:25:05.000Z,100597
2018-09-03T04:26:49.000Z,100593
2018-09-03T04:28:04.000Z,100590
2018-09-03T04:29:49.000Z,100589
2018-09-03T04:31:04.000Z,100587
2018-09-03T04:32:04.000Z,100589
2018-09-03T04:34:04.000Z,100597
2018-09-03T04:36:04.000Z,100598
2018-09-03T04:38:04.000Z,100603
2018-09-03T04:39:04.000Z,100603
2018-09-03T04:40:49.000Z,100609
2018-09-03T04:42:04.000Z,100607
2018-09-03T04:44:04.000Z,100601
2018-09-03T04:45:49.000Z,100596
2018-09-03T04:47:04.000Z,100594
2018-09-03T04:49:04.000Z,100590
2018-09-03T04:51:04.000Z,100599
2018-09-03T04:53:04.000Z,100588
2018-09-03T04:55:04.000Z,100599
2018-09-03T04:57:04.000Z,100604
2018-09-03T04:59:04.000Z,100609
2018-09-03T05:00:49.000Z,100598
2018-09-03T05:02:04.000Z,100601
2018-09-03T05:04:04.000Z,100599
2018-09-03T05:05:04.000Z,100597
2018-09-03T05:07:04.000Z,100604
2018-09-03T05:08:04.000Z,100603
2018-09-03T05:09:04.000Z,100604
2018-09-03T05:11:04.000Z,100600
2018-09-03T05:12:04.000Z,100600
2018-09-03T05:14:04.000Z,100600
2018-09-03T05:16:04.000Z,100602
2018-09-03T05:18:04.000Z,100604
2018-09-03T05:19:04.000Z,100600
2018-09-03T05:21:04.000Z,100602
2018-09-03T05:22:04.000Z,100601
2018-09-03T05:24:04.000Z,100600
2018-09-03T05:26:04.000Z,100604
2018-09-03T05:27:04.000Z,100600
2018-09-03T05:28:04.000Z,100604
2018-09-03T05:30:04.000Z,100600
2018-09-03T05:31:04.000Z,100594
2018-09-03T05:33:04.000Z,100600
2018-09-03T05:34:49.000Z,100604
2018-09-03T05:36:04.000Z,100598
2018-09-03T05:37:49.000Z,100591
2018-09-03T05:39:04.000Z,100597
2018-09-03T05:41:04.000Z,100595
2018-09-03T05:42:04.000Z,100598
2018-09-03T05:44:04.000Z,100594
2018-09-03T05:46:04.000Z,100594
2018-09-03T05:48:04.000Z,100594
2018-09-03T05:50:04.000Z,100595
2018-09-03T05:51:04.000Z,100594
2018-09-03T05:52:04.000Z,100596
2018-09-03T05:54:04.000Z,100597
2018-09-03T05:56:04.000Z,100601
2018-09-03T05:58:04.000Z,100602
2018-09-03T06:00:04.000Z,100607
2018-09-03T06:02:04.000Z,100607
2018-09-03T06:04:04.000Z,100604
2018-09-03T06:06:04.000Z,100607
2018-09-03T06:08:04.000Z,100613
2018-09-03T06:09:49.000Z,100612
2018-09-03T06:11:04.000Z,100610
2018-09-03T06:13:04.000Z,100607
2018-09-03T06:14:49.000Z,100613
2018-09-03T06:16:04.000Z,100612
2018-09-03T06:17:04.000Z,100604
2018-09-03T06:19:04.000Z,100612
2018-09-03T06:20:04.000Z,100608
2018-09-03T06:22:04.000Z,100605
2018-09-03T06:24:04.000Z,100600
2018-09-03T06:25:04.000Z,100602
2018-09-03T06:26:49.000Z,100603
2018-09-03T06:27:49.000Z,100603
2018-09-03T06:29:04.000Z,100609
2018-09-03T06:30:04.000Z,100602
2018-09-03T06:31:04.000Z,100604
2018-09-03T06:33:04.000Z,100610
2018-09-03T06:35:04.000Z,100610
2018-09-03T06:36:04.000Z,100602
2018-09-03T06:38:04.000Z,100603
2018-09-03T06:40:04.000Z,100600
2018-09-03T06:41:04.000Z,100603
2018-09-03T06:43:04.000Z,100600
2018-09-03T06:45:04.000Z,100589
2018-09-03T06:46:49.000Z,100585
2018-09-03T06:48:04.000Z,100586
2018-09-03T06:49:49.000Z,100589
2018-09-03T06:51:04.000Z,100587
2018-09-03T06:53:04.000Z,100585
2018-09-03T06:54:49.000Z,100578
2018-09-03T06:56:04.000Z,100577
2018-09-03T06:58:04.000Z,100582
2018-09-03T07:00:04.000Z,100590
2018-09-03T07:02:04.000Z,100587
2018-09-03T07:03:04.000Z,100580
2018-09-03T07:05:04.000Z,100581
2018-09-03T07:06:04.000Z,100585
2018-09-03T07:08:04.000Z,100570
2018-09-03T07:10:04.000Z,100566
2018-09-03T07:12:04.000Z,100568
2018-09-03T07:14:04.000Z,100569
2018-09-03T07:16:04.000Z,100572
2018-09-03T07:18:04.000Z,100582
2018-09-03T07:20:04.000Z,100578
2018-09-03T07:22:04.000Z,100576
2018-09-03T07:24:04.000Z,100569
2018-09-03T07:25:49.000Z,100566
2018-09-03T07:27:04.000Z,100563
2018-09-03T07:29:04.000Z,100567
2018-09-03T07:31:04.000Z,100569
2018-09-03T07:33:04.000Z,100570
2018-09-03T07:35:04.000Z,100577
2018-09-03T07:37:04.000Z,100571
2018-09-03T07:39:05.000Z,100573
2018-09-03T07:41:05.000Z,100570
2018-09-03T07:42:50.000Z,100572
2018-09-03T07:44:05.000Z,100576
2018-09-03T07:45:05.000Z,100574
2018-09-03T07:47:05.000Z,100576
2018-09-03T07:49:05.000Z,100572
2018-09-03T07:51:05.000Z,100577
2018-09-03T07:52:05.000Z,100581
2018-09-03T07:54:05.000Z,100570
2018-09-03T07:56:05.000Z,100571
2018-09-03T07:57:05.000Z,100576
2018-09-03T07:59:05.000Z,100573
2018-09-03T08:01:05.000Z,100580
2018-09-03T08:03:05.000Z,100574
2018-09-03T08:04:05.000Z,100570
2018-09-03T08:05:50.000Z,100567
2018-09-03T08:07:05.000Z,100567
2018-09-03T08:09:05.000Z,100564
2018-09-03T08:10:05.000Z,100566
2018-09-03T08:12:05.000Z,100565
2018-09-03T08:14:05.000Z,100567
2018-09-03T08:15:05.000Z,100563
2018-09-03T08:16:50.000Z,100563
2018-09-03T08:18:05.000Z,100563
2018-09-03T08:20:05.000Z,100566
2018-09-03T08:21:50.000Z,100565
2018-09-03T08:23:05.000Z,100561
2018-09-03T08:24:05.000Z,100567
2018-09-03T08:25:05.000Z,100568
2018-09-03T08:26:05.000Z,100566
2018-09-03T08:28:05.000Z,100560
2018-09-03T08:29:50.000Z,100557
2018-09-03T08:32:05.000Z,100570
2018-09-03T08:34:05.000Z,100573
2018-09-03T08:35:05.000Z,100567
2018-09-03T08:37:05.000Z,100579
2018-09-03T08:38:05.000Z,100573
2018-09-03T08:39:35.000Z,100570
2018-09-03T08:41:05.000Z,100574
2018-09-03T08:42:05.000Z,100572
2018-09-03T08:44:05.000Z,100572
2018-09-03T08:46:05.000Z,100572
2018-09-03T08:48:05.000Z,100573
2018-09-03T08:49:50.000Z,100572
2018-09-03T08:51:05.000Z,100577
2018-09-03T08:52:05.000Z,100569
2018-09-03T08:54:05.000Z,100566
2018-09-03T08:56:05.000Z,100572
2018-09-03T08:58:05.000Z,100571
2018-09-03T08:59:05.000Z,100566
2018-09-03T09:00:50.000Z,100576
2018-09-03T09:02:05.000Z,100578
2018-09-03T09:04:05.000Z,100576
2018-09-03T09:06:05.000Z,100569
2018-09-03T09:07:50.000Z,100568
2018-09-03T09:09:05.000Z,100568
2018-09-03T09:11:05.000Z,100571
2018-09-03T09:13:05.000Z,100564
2018-09-03T09:15:05.000Z,100566
2018-09-03T09:17:05.000Z,100562
2018-09-03T09:18:05.000Z,100560
2018-09-03T09:20:05.000Z,100553
2018-09-03T09:22:05.000Z,100552
2018-09-03T09:23:05.000Z,100554
2018-09-03T09:24:05.000Z,100552
2018-09-03T09:25:05.000Z,100552
2018-09-03T09:27:05.000Z,100557
2018-09-03T09:28:05.000Z,100555
2018-09-03T09:29:05.000Z,100564
2018-09-03T09:31:05.000Z,100562
2018-09-03T09:32:34.000Z,100561
2018-09-03T09:34:05.000Z,100555
2018-09-03T09:36:05.000Z,100555
2018-09-03T09:38:05.000Z,100559
2018-09-03T09:39:05.000Z,100560
2018-09-03T09:40:05.000Z,100558
2018-09-03T09:41:50.000Z,100555
2018-09-03T09:43:05.000Z,100555
2018-09-03T09:45:05.000Z,100553
2018-09-03T09:47:05.000Z,100547
2018-09-03T09:49:05.000Z,100548
2018-09-03T09:51:05.000Z,100542
2018-09-03T09:53:05.000Z,100542
2018-09-03T09:55:05.000Z,100549
2018-09-03T09:57:05.000Z,100548
2018-09-03T09:58:49.000Z,100545
2018-09-03T10:01:05.000Z,100542
2018-09-03T10:02:49.000Z,100539
2018-09-03T10:04:05.000Z,100540
2018-09-03T10:06:05.000Z,100539
2018-09-03T10:08:05.000Z,100539
2018-09-03T10:10:05.000Z,100538
2018-09-03T10:12:05.000Z,100538
2018-09-03T10:14:05.000Z,100545
2018-09-03T10:16:05.000Z,100536
2018-09-03T10:18:05.000Z,100536
2018-09-03T10:20:05.000Z,100529
2018-09-03T10:22:05.000Z,100529
2018-09-03T10:24:05.000Z,100531
2018-09-03T10:25:34.000Z,100530
2018-09-03T10:27:05.000Z,100528
2018-09-03T10:28:05.000Z,100529
2018-09-03T10:30:05.000Z,100528
2018-09-03T10:32:05.000Z,100520
2018-09-03T10:34:05.000Z,100518
2018-09-03T10:36:05.000Z,100514
2018-09-03T10:38:05.000Z,100507
2018-09-03T10:39:05.000Z,100503
2018-09-03T10:41:05.000Z,100490
2018-09-03T10:42:05.000Z,100490
2018-09-03T10:43:05.000Z,100495
2018-09-03T10:45:05.000Z,100490
2018-09-03T10:46:05.000Z,100497
2018-09-03T10:48:05.000Z,100493
2018-09-03T10:49:50.000Z,100499
2018-09-03T10:50:50.000Z,100504
2018-09-03T10:52:05.000Z,100497
2018-09-03T10:53:05.000Z,100501
2018-09-03T10:54:05.000Z,100499
2018-09-03T10:55:50.000Z,100440
2018-09-03T10:57:05.000Z,100495
2018-09-03T10:59:05.000Z,100497
2018-09-03T11:00:50.000Z,100502
2018-09-03T11:02:05.000Z,100501
2018-09-03T11:04:05.000Z,100494
2018-09-03T11:05:05.000Z,100497
2018-09-03T11:06:50.000Z,100501
2018-09-03T11:08:05.000Z,100498
2018-09-03T11:10:05.000Z,100497
2018-09-03T11:11:05.000Z,100497
2018-09-03T11:12:50.000Z,100495
2018-09-03T11:14:05.000Z,100493
2018-09-03T11:16:05.000Z,100500
2018-09-03T11:17:50.000Z,100489
2018-09-03T11:19:05.000Z,100499
2018-09-03T11:21:05.000Z,100495
2018-09-03T11:22:05.000Z,100495
2018-09-03T11:23:05.000Z,100496
2018-09-03T11:25:05.000Z,100487
2018-09-03T11:27:05.000Z,100487
2018-09-03T11:29:05.000Z,100481
2018-09-03T11:30:05.000Z,100491
2018-09-03T11:32:05.000Z,100482
2018-09-03T11:34:05.000Z,100482
2018-09-03T11:35:05.000Z,100474
2018-09-03T11:37:05.000Z,100472
2018-09-03T11:39:05.000Z,100478
2018-09-03T11:40:05.000Z,100469
2018-09-03T11:42:05.000Z,100469
2018-09-03T11:43:05.000Z,100471
2018-09-03T11:45:05.000Z,100472
2018-09-03T11:46:05.000Z,100468
2018-09-03T11:48:05.000Z,100461
2018-09-03T11:50:05.000Z,100460
2018-09-03T11:51:05.000Z,100461
2018-09-03T11:53:05.000Z,100457
2018-09-03T11:55:05.000Z,100460
2018-09-03T11:57:05.000Z,100468
2018-09-03T11:58:05.000Z,100464
2018-09-03T11:59:05.000Z,100472
2018-09-03T12:01:05.000Z,100467
2018-09-03T12:03:05.000Z,100467
2018-09-03T12:05:05.000Z,100466
2018-09-03T12:07:05.000Z,100460
2018-09-03T12:09:05.000Z,100466
2018-09-03T12:10:50.000Z,100456
2018-09-03T12:12:05.000Z,100462
2018-09-03T12:14:05.000Z,100454
2018-09-03T12:16:05.000Z,100456
2018-09-03T12:18:05.000Z,100457
2018-09-03T12:19:50.000Z,100450
2018-09-03T12:21:05.000Z,100452
2018-09-03T12:23:05.000Z,100449
2018-09-03T12:24:05.000Z,100450
2018-09-03T12:26:05.000Z,100454
2018-09-03T12:28:05.000Z,100459
2018-09-03T12:29:50.000Z,100456
2018-09-03T12:31:05.000Z,100456
2018-09-03T12:33:05.000Z,100458
2018-09-03T12:35:05.000Z,100456
2018-09-03T12:36:50.000Z,100455
2018-09-03T12:38:05.000Z,100457
2018-09-03T12:39:05.000Z,100450
2018-09-03T12:40:50.000Z,100455
2018-09-03T12:42:05.000Z,100444
2018-09-03T12:43:50.000Z,100444
2018-09-03T12:44:50.000Z,100445
2018-09-03T12:46:05.000Z,100435
2018-09-03T12:47:05.000Z,100440
2018-09-03T12:49:05.000Z,100445
2018-09-03T12:50:05.000Z,100447
2018-09-03T12:52:05.000Z,100448
2018-09-03T12:53:50.000Z,100444
2018-09-03T12:55:05.000Z,100442
2018-09-03T12:57:05.000Z,100437
2018-09-03T12:59:05.000Z,100441
2018-09-03T13:00:05.000Z,100439
2018-09-03T13:02:05.000Z,100439
2018-09-03T13:04:05.000Z,100428
2018-09-03T13:05:05.000Z,100427
2018-09-03T13:07:05.000Z,100422
2018-09-03T13:09:05.000Z,100424
2018-09-03T13:11:05.000Z,100425
2018-09-03T13:13:05.000Z,100421
2018-09-03T13:15:05.000Z,100423
2018-09-03T13:17:05.000Z,100422
2018-09-03T13:19:05.000Z,100420
2018-09-03T13:21:05.000Z,100425
2018-09-03T13:23:05.000Z,100428
2018-09-03T13:25:05.000Z,100426
2018-09-03T13:26:50.000Z,100429
2018-09-03T13:28:05.000Z,100429
2018-09-03T13:30:05.000Z,100422
2018-09-03T13:32:05.000Z,100428
2018-09-03T13:34:05.000Z,100424
2018-09-03T13:35:05.000Z,100428
2018-09-03T13:37:05.000Z,100421
2018-09-03T13:38:50.000Z,100421
2018-09-03T13:39:50.000Z,100421
2018-09-03T13:41:05.000Z,100429
2018-09-03T13:43:05.000Z,100426
2018-09-03T13:44:05.000Z,100431
2018-09-03T13:46:05.000Z,100426
2018-09-03T13:47:05.000Z,100424
2018-09-03T13:49:05.000Z,100428
2018-09-03T13:50:50.000Z,100426
2018-09-03T13:52:05.000Z,100425
2018-09-03T13:53:05.000Z,100425
2018-09-03T13:55:05.000Z,100427
2018-09-03T13:56:34.000Z,100426
2018-09-03T13:58:05.000Z,100422
2018-09-03T14:00:05.000Z,100415
2018-09-03T14:02:04.000Z,100421
2018-09-03T14:04:04.000Z,100421
2018-09-03T14:06:04.000Z,100423
2018-09-03T14:07:04.000Z,100423
2018-09-03T14:09:04.000Z,100430
2018-09-03T14:11:04.000Z,100427
2018-09-03T14:12:04.000Z,100426
2018-09-03T14:14:04.000Z,100433
2018-09-03T14:16:04.000Z,100432
2018-09-03T14:18:04.000Z,100435
2018-09-03T14:20:04.000Z,100431
2018-09-03T14:22:04.000Z,100435
2018-09-03T14:24:04.000Z,100436
2018-09-03T14:26:04.000Z,100436
2018-09-03T14:28:04.000Z,100425
2018-09-03T14:30:04.000Z,100431
2018-09-03T14:31:04.000Z,100431
2018-09-03T14:33:04.000Z,100430
2018-09-03T14:35:04.000Z,100422
2018-09-03T14:37:04.000Z,100420
2018-09-03T14:38:04.000Z,100424
2018-09-03T14:40:04.000Z,100429
2018-09-03T14:42:04.000Z,100425
2018-09-03T14:43:04.000Z,100430
2018-09-03T14:45:04.000Z,100430
2018-09-03T14:47:04.000Z,100426
2018-09-03T14:49:04.000Z,100432
2018-09-03T14:51:04.000Z,100426
2018-09-03T14:53:04.000Z,100428
2018-09-03T14:54:04.000Z,100420
2018-09-03T14:56:04.000Z,100421
2018-09-03T14:58:04.000Z,100417
2018-09-03T14:59:04.000Z,100415
2018-09-03T15:01:04.000Z,100421
2018-09-03T15:02:04.000Z,100418
2018-09-03T15:04:04.000Z,100419
2018-09-03T15:05:04.000Z,100421
2018-09-03T15:07:04.000Z,100419
2018-09-03T15:09:04.000Z,100421
2018-09-03T15:11:04.000Z,100423
2018-09-03T15:12:04.000Z,100421
2018-09-03T15:13:04.000Z,100423
2018-09-03T15:15:04.000Z,100423
2018-09-03T15:17:04.000Z,100427
2018-09-03T15:19:04.000Z,100422
2018-09-03T15:20:04.000Z,100419
2018-09-03T15:22:04.000Z,100426
2018-09-03T15:23:34.000Z,100423
2018-09-03T15:25:04.000Z,100425
2018-09-03T15:26:04.000Z,100427
2018-09-03T15:27:04.000Z,100422
2018-09-03T15:28:04.000Z,100426
2018-09-03T15:30:04.000Z,100423
2018-09-03T15:31:49.000Z,100431
2018-09-03T15:33:04.000Z,100431
2018-09-03T15:34:49.000Z,100425
2018-09-03T15:35:49.000Z,100427
2018-09-03T15:37:04.000Z,100423
2018-09-03T15:38:49.000Z,100424
2018-09-03T15:40:04.000Z,100430
2018-09-03T15:41:49.000Z,100432
2018-09-03T15:43:04.000Z,100430
2018-09-03T15:44:04.000Z,100425
2018-09-03T15:45:04.000Z,100425
2018-09-03T15:47:04.000Z,100422
2018-09-03T15:48:04.000Z,100424
2018-09-03T15:50:04.000Z,100424
2018-09-03T15:51:04.000Z,100423
2018-09-03T15:52:49.000Z,100420
2018-09-03T15:54:04.000Z,100427
2018-09-03T15:55:49.000Z,100421
2018-09-03T15:57:04.000Z,100419
2018-09-03T15:58:04.000Z,100421
2018-09-03T16:00:04.000Z,100415
2018-09-03T16:02:04.000Z,100412
2018-09-03T16:03:04.000Z,100416
2018-09-03T16:05:04.000Z,100417
2018-09-03T16:07:04.000Z,100416
2018-09-03T16:08:04.000Z,100421
2018-09-03T16:10:04.000Z,100418
2018-09-03T16:11:04.000Z,100423
2018-09-03T16:13:04.000Z,100425
2018-09-03T16:15:04.000Z,100423
2018-09-03T16:17:04.000Z,100419
2018-09-03T16:19:04.000Z,100422
2018-09-03T16:20:04.000Z,100421
2018-09-03T16:21:04.000Z,100412
2018-09-03T16:23:04.000Z,100416
2018-09-03T16:25:04.000Z,100418
2018-09-03T16:27:04.000Z,100414
2018-09-03T16:29:04.000Z,100412
2018-09-03T16:30:04.000Z,100416
2018-09-03T16:32:04.000Z,100412
2018-09-03T16:34:04.000Z,100411
2018-09-03T16:35:49.000Z,100407
2018-09-03T16:37:04.000Z,100410
2018-09-03T16:39:04.000Z,100407
2018-09-03T16:41:04.000Z,100413
2018-09-03T16:42:49.000Z,100409
2018-09-03T16:44:04.000Z,100414
2018-09-03T16:46:04.000Z,100415
2018-09-03T16:48:04.000Z,100419
2018-09-03T16:50:04.000Z,100419
2018-09-03T16:52:04.000Z,100415
2018-09-03T16:54:04.000Z,100420
2018-09-03T16:56:04.000Z,100412
2018-09-03T16:57:49.000Z,100414
2018-09-03T16:59:04.000Z,100416
2018-09-03T17:01:04.000Z,100413
2018-09-03T17:03:04.000Z,100413
2018-09-03T17:05:04.000Z,100414
2018-09-03T17:06:04.000Z,100415
2018-09-03T17:07:49.000Z,100415
2018-09-03T17:09:04.000Z,100413
2018-09-03T17:10:04.000Z,100415
2018-09-03T17:12:05.000Z,100407
2018-09-03T17:14:05.000Z,100403
2018-09-03T17:16:05.000Z,100403
2018-09-03T17:17:05.000Z,100405
2018-09-03T17:18:05.000Z,100406
2018-09-03T17:20:05.000Z,100407
2018-09-03T17:21:34.000Z,100406
2018-09-03T17:23:05.000Z,100409
2018-09-03T17:24:34.000Z,100410
2018-09-03T17:26:05.000Z,100409
2018-09-03T17:27:05.000Z,100408
2018-09-03T17:28:49.000Z,100417
2018-09-03T17:30:05.000Z,100412
2018-09-03T17:31:05.000Z,100413
2018-09-03T17:32:49.000Z,100414
2018-09-03T17:34:05.000Z,100413
2018-09-03T17:36:05.000Z,100410
2018-09-03T17:37:50.000Z,100354
2018-09-03T17:40:05.000Z,100421
2018-09-03T17:41:05.000Z,100418
2018-09-03T17:43:05.000Z,100413
2018-09-03T17:44:05.000Z,100418
2018-09-03T17:45:05.000Z,100415
2018-09-03T17:47:05.000Z,100418
2018-09-03T17:49:05.000Z,100417
2018-09-03T17:50:05.000Z,100412
2018-09-03T17:51:05.000Z,100412
2018-09-03T17:52:49.000Z,100411
2018-09-03T17:54:05.000Z,100407
2018-09-03T17:55:49.000Z,100414
2018-09-03T17:57:05.000Z,100412
2018-09-03T17:58:05.000Z,100413
2018-09-03T17:59:05.000Z,100415
2018-09-03T18:01:05.000Z,100417
2018-09-03T18:02:49.000Z,100414
2018-09-03T18:04:05.000Z,100409
2018-09-03T18:06:05.000Z,100422
2018-09-03T18:08:05.000Z,100411
2018-09-03T18:09:05.000Z,100413
2018-09-03T18:10:49.000Z,100414
2018-09-03T18:12:05.000Z,100411
2018-09-03T18:13:05.000Z,100416
2018-09-03T18:14:49.000Z,100414
2018-09-03T18:16:05.000Z,100417
2018-09-03T18:17:49.000Z,100418
2018-09-03T18:19:05.000Z,100412
2018-09-03T18:21:05.000Z,100410
2018-09-03T18:23:05.000Z,100407
2018-09-03T18:25:05.000Z,100408
2018-09-03T18:26:05.000Z,100406
2018-09-03T18:28:05.000Z,100409
2018-09-03T18:29:05.000Z,100408
2018-09-03T18:30:49.000Z,100406
2018-09-03T18:32:05.000Z,100410
2018-09-03T18:34:05.000Z,100409
2018-09-03T18:36:05.000Z,100405
2018-09-03T18:38:05.000Z,100396
2018-09-03T18:40:05.000Z,100392
2018-09-03T18:41:05.000Z,100388
2018-09-03T18:42:05.000Z,100391
2018-09-03T18:44:05.000Z,100396
2018-09-03T18:46:05.000Z,100391
2018-09-03T18:47:50.000Z,100391
2018-09-03T18:49:05.000Z,100390
2018-09-03T18:51:05.000Z,100394
2018-09-03T18:53:04.000Z,100387
2018-09-03T18:55:05.000Z,100390
2018-09-03T18:56:05.000Z,100389
2018-09-03T18:58:05.000Z,100389
2018-09-03T19:00:05.000Z,100385
2018-09-03T19:02:05.000Z,100383
2018-09-03T19:04:05.000Z,100375
2018-09-03T19:05:49.000Z,100377
2018-09-03T19:07:05.000Z,100374
2018-09-03T19:08:05.000Z,100376
2018-09-03T19:10:05.000Z,100377
2018-09-03T19:12:05.000Z,100384
2018-09-03T19:14:05.000Z,100386
2018-09-03T19:16:04.000Z,100391
2018-09-03T19:17:05.000Z,100385
2018-09-03T19:19:04.000Z,100395
2018-09-03T19:21:04.000Z,100390
2018-09-03T19:23:04.000Z,100398
2018-09-03T19:24:34.000Z,100392
2018-09-03T19:26:04.000Z,100394
2018-09-03T19:28:04.000Z,100397
2018-09-03T19:29:04.000Z,100398
2018-09-03T19:31:04.000Z,100401
2018-09-03T19:33:04.000Z,100405
2018-09-03T19:35:04.000Z,100409
2018-09-03T19:36:04.000Z,100404
2018-09-03T19:38:04.000Z,100404
2018-09-03T19:40:04.000Z,100405
2018-09-03T19:41:49.000Z,100406
2018-09-03T19:43:04.000Z,100403
2018-09-03T19:45:04.000Z,100407
2018-09-03T19:46:49.000Z,100408
2018-09-03T19:48:04.000Z,100409
2018-09-03T19:49:04.000Z,100413
2018-09-03T19:51:04.000Z,100419
2018-09-03T19:53:04.000Z,100414
2018-09-03T19:54:04.000Z,100417
2018-09-03T19:56:04.000Z,100418
2018-09-03T19:57:49.000Z,100416
2018-09-03T19:59:04.000Z,100413
2018-09-03T20:00:04.000Z,100413
2018-09-03T20:02:04.000Z,100408
2018-09-03T20:04:04.000Z,100405
2018-09-03T20:05:49.000Z,100404
2018-09-03T20:07:04.000Z,100407
2018-09-03T20:09:04.000Z,100409
2018-09-03T20:11:04.000Z,100409
2018-09-03T20:13:04.000Z,100405
2018-09-03T20:15:04.000Z,100415
2018-09-03T20:17:04.000Z,100411
2018-09-03T20:19:04.000Z,100409
2018-09-03T20:20:04.000Z,100406
2018-09-03T20:22:04.000Z,100408
2018-09-03T20:24:05.000Z,100401
2018-09-03T20:26:05.000Z,100404
2018-09-03T20:27:50.000Z,100408
2018-09-03T20:29:05.000Z,100404
2018-09-03T20:30:05.000Z,100408
2018-09-03T20:32:05.000Z,100412